Terminal Aerodrome Forecast
Issued by NWS

Home | Current Version | Previous Version | Text Only | Print | Product List | Glossary On
Versions: 1 2 3 4 5 6 7 8 9 10 11 12 13 14 15
901
FTUS46 KMTR 302338
TAFSNS
TAF
KSNS 302338Z 3100/3124 30015KT 6SM HZ OVC010
     FM310300 29010KT 6SM HZ BR OVC007
     FM310600 29006KT 4SM BR OVC003
     FM310900 VRB03KT 4SM BR OVC002
     FM311500 VRB03KT 5SM BR OVC007
     FM311730 28005KT 6SM HZ FEW009 SCT015
     FM312000 29012KT 6SM HZ SKC=

USA.gov is the U.S. government's official web portal to all federal, state and local government web resources and services.